PGT69TD LTFJ-EDDM
Flight info
| Callsign | PGT69TD |
|---|---|
| Flight time | N/A |
| Altitude | 36000 |
| Route | VADEN1X/24L VADEN DCT BAKLO DCT XANEX DCT UTEKA DCT DONIV DCT BABIT DCT GOTAR DCT AMADI Q113 NAPSA NAPSA4A |
| Aircraft | A21N/M-SDE2E3FGHIRWXY/LB1 |
Departure
| Time | 2026-05-06 14:42 |
|---|---|
| Airport | Istanbul Sabiha Gökçen International Airport (LTFJ) |
Arrival
| Time | N/A |
|---|---|
| Airport | Munich Airport (EDDM) |
| Time | Latitude | Longitude | Altitude | Speed | Heading |
|---|---|---|---|---|---|
| 2026-05-06 13:32 | 40.90400 | 29.31099 | 326 ft | 0 kts | 335° |
| 2026-05-06 14:22 | 40.90394 | 29.31102 | 326 ft | 4 kts | 337° |
| 2026-05-06 14:22 | 40.90369 | 29.31113 | 326 ft | 4 kts | 352° |
| 2026-05-06 14:22 | 40.90343 | 29.31112 | 324 ft | 4 kts | 19° |
| 2026-05-06 14:22 | 40.90323 | 29.31094 | 323 ft | 3 kts | 61° |
| 2026-05-06 14:23 | 40.90321 | 29.31089 | 322 ft | 0 kts | 64° |
| 2026-05-06 14:28 | 40.90324 | 29.31097 | 323 ft | 2 kts | 64° |
| 2026-05-06 14:28 | 40.90335 | 29.31127 | 325 ft | 5 kts | 64° |
| 2026-05-06 14:29 | 40.90355 | 29.31180 | 325 ft | 8 kts | 64° |
| 2026-05-06 14:29 | 40.90384 | 29.31258 | 323 ft | 11 kts | 63° |
| 2026-05-06 14:29 | 40.90420 | 29.31355 | 326 ft | 13 kts | 64° |
| 2026-05-06 14:29 | 40.90427 | 29.31423 | 326 ft | 8 kts | 135° |
| 2026-05-06 14:30 | 40.90373 | 29.31463 | 326 ft | 10 kts | 154° |
| 2026-05-06 14:30 | 40.90308 | 29.31512 | 326 ft | 12 kts | 128° |
| 2026-05-06 14:30 | 40.90322 | 29.31619 | 326 ft | 13 kts | 62° |
| 2026-05-06 14:30 | 40.90365 | 29.31736 | 325 ft | 15 kts | 64° |
| 2026-05-06 14:31 | 40.90416 | 29.31875 | 325 ft | 18 kts | 64° |
| 2026-05-06 14:31 | 40.90476 | 29.32036 | 326 ft | 21 kts | 64° |
| 2026-05-06 14:31 | 40.90542 | 29.32214 | 326 ft | 22 kts | 64° |
| 2026-05-06 14:31 | 40.90586 | 29.32381 | 326 ft | 13 kts | 102° |
| 2026-05-06 14:32 | 40.90533 | 29.32453 | 325 ft | 6 kts | 156° |
| 2026-05-06 14:32 | 40.90523 | 29.32459 | 325 ft | 0 kts | 154° |
| 2026-05-06 14:35 | 40.90518 | 29.32462 | 325 ft | 3 kts | 154° |
| 2026-05-06 14:35 | 40.90462 | 29.32497 | 325 ft | 16 kts | 154° |
| 2026-05-06 14:35 | 40.90350 | 29.32572 | 326 ft | 17 kts | 153° |
| 2026-05-06 14:35 | 40.90275 | 29.32563 | 326 ft | 12 kts | 236° |
| 2026-05-06 14:36 | 40.90226 | 29.32441 | 326 ft | 21 kts | 250° |
| 2026-05-06 14:36 | 40.90167 | 29.32263 | 326 ft | 22 kts | 244° |
| 2026-05-06 14:36 | 40.90103 | 29.32092 | 326 ft | 13 kts | 244° |
| 2026-05-06 14:36 | 40.90024 | 29.32068 | 325 ft | 14 kts | 150° |
| 2026-05-06 14:37 | 40.89921 | 29.32135 | 319 ft | 19 kts | 154° |
| 2026-05-06 14:37 | 40.89792 | 29.32219 | 314 ft | 22 kts | 154° |
| 2026-05-06 14:37 | 40.89651 | 29.32311 | 311 ft | 23 kts | 154° |
| 2026-05-06 14:37 | 40.89542 | 29.32354 | 312 ft | 16 kts | 168° |
| 2026-05-06 14:38 | 40.89502 | 29.32448 | 312 ft | 14 kts | 70° |
| 2026-05-06 14:38 | 40.89548 | 29.32576 | 311 ft | 17 kts | 64° |
| 2026-05-06 14:38 | 40.89606 | 29.32731 | 312 ft | 20 kts | 64° |
| 2026-05-06 14:38 | 40.89672 | 29.32911 | 311 ft | 23 kts | 64° |
| 2026-05-06 14:39 | 40.89743 | 29.33104 | 311 ft | 26 kts | 64° |
| 2026-05-06 14:39 | 40.89748 | 29.33118 | 310 ft | 31 kts | 64° |
| 2026-05-06 14:39 | 40.89847 | 29.33383 | 309 ft | 33 kts | 64° |
| 2026-05-06 14:40 | 40.89945 | 29.33648 | 315 ft | 22 kts | 64° |
| 2026-05-06 14:40 | 40.90002 | 29.33808 | 320 ft | 12 kts | 65° |
| 2026-05-06 14:40 | 40.90015 | 29.33906 | 320 ft | 12 kts | 127° |
| 2026-05-06 14:40 | 40.89936 | 29.33963 | 323 ft | 14 kts | 154° |
| 2026-05-06 14:41 | 40.89860 | 29.33987 | 325 ft | 11 kts | 209° |
| 2026-05-06 14:41 | 40.89820 | 29.33889 | 323 ft | 19 kts | 245° |
| 2026-05-06 14:41 | 40.89652 | 29.33429 | 312 ft | 91 kts | 244° |
| 2026-05-06 14:41 | 40.89289 | 29.32440 | 308 ft | 145 kts | 244° |
| 2026-05-06 14:42 | 40.88807 | 29.31107 | 575 ft | 162 kts | 243° |
| 2026-05-06 14:42 | 40.88283 | 29.29749 | 1083 ft | 171 kts | 238° |
| 2026-05-06 14:42 | 40.87380 | 29.28735 | 1540 ft | 182 kts | 201° |
| 2026-05-06 14:42 | 40.86101 | 29.28202 | 1892 ft | 202 kts | 208° |
| 2026-05-06 14:43 | 40.84884 | 29.27127 | 2452 ft | 220 kts | 216° |
| 2026-05-06 14:43 | 40.83553 | 29.25904 | 2983 ft | 244 kts | 215° |
| 2026-05-06 14:43 | 40.82117 | 29.24610 | 3770 ft | 252 kts | 216° |
| 2026-05-06 14:43 | 40.80659 | 29.23304 | 4610 ft | 255 kts | 216° |
| 2026-05-06 14:44 | 40.79181 | 29.21984 | 5100 ft | 258 kts | 216° |
| 2026-05-06 14:44 | 40.77692 | 29.20659 | 5509 ft | 260 kts | 216° |
| 2026-05-06 14:44 | 40.76282 | 29.19171 | 5905 ft | 260 kts | 231° |
| 2026-05-06 14:45 | 40.74510 | 29.14857 | 6704 ft | 272 kts | 247° |
| 2026-05-06 14:45 | 40.73714 | 29.12588 | 7080 ft | 274 kts | 247° |
| 2026-05-06 14:45 | 40.72901 | 29.10304 | 7341 ft | 276 kts | 247° |
| 2026-05-06 14:45 | 40.72078 | 29.08018 | 7647 ft | 277 kts | 247° |
| 2026-05-06 14:46 | 40.71245 | 29.05719 | 7649 ft | 278 kts | 247° |
| 2026-05-06 14:46 | 40.70407 | 29.03421 | 7535 ft | 278 kts | 247° |
| 2026-05-06 14:46 | 40.69571 | 29.01134 | 7396 ft | 277 kts | 247° |
| 2026-05-06 14:46 | 40.68732 | 28.98843 | 7246 ft | 277 kts | 247° |
| 2026-05-06 14:47 | 40.68402 | 28.97942 | 7175 ft | 277 kts | 247° |
| 2026-05-06 14:47 | 40.68246 | 28.97518 | 7154 ft | 276 kts | 247° |
| 2026-05-06 14:47 | 40.67414 | 28.95242 | 7326 ft | 276 kts | 248° |
| 2026-05-06 14:47 | 40.66822 | 28.92843 | 8111 ft | 276 kts | 266° |
| 2026-05-06 14:48 | 40.66792 | 28.90325 | 8967 ft | 277 kts | 276° |
| 2026-05-06 14:48 | 40.66897 | 28.87784 | 9823 ft | 280 kts | 276° |
| 2026-05-06 14:48 | 40.67005 | 28.85174 | 10456 ft | 293 kts | 276° |
| 2026-05-06 14:48 | 40.67110 | 28.82395 | 10796 ft | 315 kts | 276° |
| 2026-05-06 14:49 | 40.67210 | 28.79451 | 11092 ft | 336 kts | 275° |
| 2026-05-06 14:49 | 40.67312 | 28.76289 | 11374 ft | 356 kts | 275° |
| 2026-05-06 14:49 | 40.67414 | 28.72952 | 11686 ft | 372 kts | 275° |
| 2026-05-06 14:49 | 40.67515 | 28.69513 | 12288 ft | 379 kts | 275° |
| 2026-05-06 14:50 | 40.67620 | 28.66018 | 12971 ft | 382 kts | 276° |
| 2026-05-06 14:50 | 40.68013 | 28.62574 | 13637 ft | 381 kts | 286° |
| 2026-05-06 14:50 | 40.68942 | 28.59318 | 14216 ft | 380 kts | 301° |
| 2026-05-06 14:50 | 40.70525 | 28.56546 | 14762 ft | 380 kts | 317° |
| 2026-05-06 14:51 | 40.72569 | 28.54323 | 15313 ft | 381 kts | 324° |
| 2026-05-06 14:51 | 40.74707 | 28.52228 | 15848 ft | 385 kts | 324° |
| 2026-05-06 14:51 | 40.76867 | 28.50109 | 16369 ft | 388 kts | 324° |
| 2026-05-06 14:51 | 40.79030 | 28.47958 | 16890 ft | 391 kts | 324° |
| 2026-05-06 14:52 | 40.81140 | 28.45845 | 17386 ft | 393 kts | 324° |
| 2026-05-06 14:52 | 40.83331 | 28.43641 | 17884 ft | 396 kts | 324° |
| 2026-05-06 14:52 | 40.85533 | 28.41421 | 18376 ft | 399 kts | 324° |
| 2026-05-06 14:52 | 40.87748 | 28.39188 | 18809 ft | 402 kts | 324° |
| 2026-05-06 14:53 | 40.89971 | 28.36942 | 19252 ft | 403 kts | 323° |
| 2026-05-06 14:53 | 40.92205 | 28.34684 | 19700 ft | 405 kts | 324° |
| 2026-05-06 14:53 | 40.94452 | 28.32410 | 20143 ft | 407 kts | 323° |
| 2026-05-06 14:53 | 40.96710 | 28.30124 | 20586 ft | 409 kts | 323° |
| 2026-05-06 14:54 | 40.98951 | 28.27850 | 21042 ft | 411 kts | 323° |
| 2026-05-06 14:54 | 41.01223 | 28.25534 | 21502 ft | 413 kts | 323° |
| 2026-05-06 14:54 | 41.03503 | 28.23212 | 21977 ft | 415 kts | 323° |
| 2026-05-06 14:54 | 41.05801 | 28.20880 | 22499 ft | 416 kts | 323° |
| 2026-05-06 14:55 | 41.06474 | 28.20199 | 22647 ft | 417 kts | 323° |
| 2026-05-06 14:55 | 41.08394 | 28.18248 | 23027 ft | 419 kts | 323° |
| 2026-05-06 14:55 | 41.10718 | 28.15880 | 23482 ft | 422 kts | 323° |
| 2026-05-06 14:55 | 41.13051 | 28.13495 | 23912 ft | 424 kts | 323° |
| 2026-05-06 14:56 | 41.15389 | 28.11107 | 24309 ft | 426 kts | 323° |
| 2026-05-06 14:56 | 41.17746 | 28.08701 | 24721 ft | 427 kts | 323° |
| 2026-05-06 14:56 | 41.20102 | 28.06291 | 25107 ft | 429 kts | 323° |
| 2026-05-06 14:56 | 41.22469 | 28.03861 | 25509 ft | 430 kts | 323° |
| 2026-05-06 14:57 | 41.24774 | 28.01498 | 25871 ft | 432 kts | 323° |
| 2026-05-06 14:57 | 41.27155 | 27.99066 | 26349 ft | 430 kts | 323° |
| 2026-05-06 14:57 | 41.29517 | 27.96652 | 26871 ft | 427 kts | 323° |
| 2026-05-06 14:57 | 41.31795 | 27.94318 | 27346 ft | 426 kts | 323° |
| 2026-05-06 14:58 | 41.33120 | 27.92956 | 27635 ft | 424 kts | 323° |
| 2026-05-06 14:58 | 41.35451 | 27.90559 | 28134 ft | 422 kts | 323° |
| 2026-05-06 14:58 | 41.36843 | 27.89129 | 28418 ft | 421 kts | 323° |
| 2026-05-06 14:58 | 41.39158 | 27.86745 | 28905 ft | 420 kts | 323° |
| 2026-05-06 14:59 | 41.41467 | 27.84367 | 29365 ft | 418 kts | 323° |
| 2026-05-06 14:59 | 41.43757 | 27.82006 | 29820 ft | 417 kts | 323° |
| 2026-05-06 14:59 | 41.46083 | 27.79698 | 30253 ft | 415 kts | 326° |
| 2026-05-06 14:59 | 41.48424 | 27.77456 | 30623 ft | 414 kts | 325° |
| 2026-05-06 15:00 | 41.50731 | 27.75255 | 30970 ft | 413 kts | 326° |
| 2026-05-06 15:00 | 41.53097 | 27.73013 | 31320 ft | 412 kts | 326° |
| 2026-05-06 15:00 | 41.55438 | 27.70791 | 31635 ft | 412 kts | 326° |
| 2026-05-06 15:00 | 41.57771 | 27.68568 | 31937 ft | 412 kts | 326° |
| 2026-05-06 15:01 | 41.60068 | 27.66373 | 32278 ft | 411 kts | 325° |
| 2026-05-06 15:01 | 41.62391 | 27.64150 | 32597 ft | 411 kts | 325° |
| 2026-05-06 15:01 | 41.64718 | 27.61921 | 32901 ft | 411 kts | 325° |
| 2026-05-06 15:01 | 41.67035 | 27.59699 | 33208 ft | 410 kts | 325° |
| 2026-05-06 15:02 | 41.69289 | 27.57537 | 33475 ft | 410 kts | 325° |
| 2026-05-06 15:02 | 41.71075 | 27.55829 | 33694 ft | 410 kts | 325° |
| 2026-05-06 15:02 | 41.73168 | 27.53829 | 33962 ft | 409 kts | 325° |
| 2026-05-06 15:02 | 41.74510 | 27.52546 | 34104 ft | 409 kts | 325° |
| 2026-05-06 15:03 | 41.75742 | 27.51368 | 34222 ft | 409 kts | 325° |
| 2026-05-06 15:03 | 41.78028 | 27.49174 | 34403 ft | 409 kts | 325° |
| 2026-05-06 15:03 | 41.80377 | 27.46914 | 34613 ft | 409 kts | 325° |
| 2026-05-06 15:03 | 41.82656 | 27.44725 | 34828 ft | 409 kts | 325° |
| 2026-05-06 15:04 | 41.84965 | 27.42502 | 35038 ft | 408 kts | 325° |
| 2026-05-06 15:04 | 41.87272 | 27.40277 | 35232 ft | 408 kts | 325° |
| 2026-05-06 15:04 | 41.89576 | 27.38056 | 35425 ft | 408 kts | 325° |
| 2026-05-06 15:04 | 41.91886 | 27.35822 | 35605 ft | 408 kts | 325° |
| 2026-05-06 15:05 | 41.94047 | 27.33350 | 35772 ft | 409 kts | 314° |
| 2026-05-06 15:05 | 41.95730 | 27.30259 | 35922 ft | 412 kts | 303° |
| 2026-05-06 15:05 | 41.97165 | 27.26922 | 36065 ft | 413 kts | 302° |
| 2026-05-06 15:06 | 41.99998 | 27.20197 | 36068 ft | 412 kts | 302° |
| 2026-05-06 15:06 | 42.02858 | 27.13509 | 36044 ft | 411 kts | 303° |
| 2026-05-06 15:07 | 42.05672 | 27.06952 | 36030 ft | 411 kts | 303° |
| 2026-05-06 15:07 | 42.08514 | 27.00326 | 36029 ft | 411 kts | 302° |
| 2026-05-06 15:08 | 42.11357 | 26.93664 | 36030 ft | 410 kts | 303° |
| 2026-05-06 15:08 | 42.14199 | 26.86999 | 36033 ft | 410 kts | 303° |
| 2026-05-06 15:09 | 42.17028 | 26.80333 | 36031 ft | 409 kts | 302° |
| 2026-05-06 15:09 | 42.19854 | 26.73662 | 36032 ft | 409 kts | 303° |
| 2026-05-06 15:10 | 42.22675 | 26.67013 | 36028 ft | 409 kts | 303° |
| 2026-05-06 15:10 | 42.25496 | 26.60359 | 36021 ft | 408 kts | 303° |
| 2026-05-06 15:11 | 42.28315 | 26.53702 | 36021 ft | 408 kts | 303° |
| 2026-05-06 15:11 | 42.31127 | 26.47044 | 36019 ft | 408 kts | 303° |
| 2026-05-06 15:12 | 42.33879 | 26.40520 | 36014 ft | 407 kts | 303° |
| 2026-05-06 15:12 | 42.36702 | 26.33805 | 36015 ft | 408 kts | 302° |
| 2026-05-06 15:13 | 42.39495 | 26.27130 | 36005 ft | 407 kts | 302° |
| 2026-05-06 15:13 | 42.41267 | 26.22890 | 36003 ft | 407 kts | 302° |
| 2026-05-06 15:14 | 42.42682 | 26.19509 | 36020 ft | 407 kts | 302° |
| 2026-05-06 15:14 | 42.45455 | 26.12818 | 36008 ft | 407 kts | 302° |
| 2026-05-06 15:15 | 42.48215 | 26.06186 | 36014 ft | 407 kts | 302° |
| 2026-05-06 15:15 | 42.51000 | 25.99511 | 36005 ft | 407 kts | 302° |
| 2026-05-06 15:16 | 42.53769 | 25.92823 | 36002 ft | 407 kts | 302° |
| 2026-05-06 15:16 | 42.55532 | 25.88555 | 36004 ft | 407 kts | 302° |
| 2026-05-06 15:17 | 42.57128 | 25.84675 | 36007 ft | 407 kts | 302° |
| 2026-05-06 15:17 | 42.59039 | 25.80024 | 36017 ft | 407 kts | 302° |
| 2026-05-06 15:18 | 42.60346 | 25.76835 | 36006 ft | 407 kts | 302° |
| 2026-05-06 15:18 | 42.61034 | 25.75159 | 36010 ft | 407 kts | 302° |